Jomi — C6VK4 — position and weather

sailwx.info

Track history (hours):
 
Tides and Currents Weather Stations Pressure Air Temp Water Temp Dewpoint Dewpoint Depression Visibility Wind Speed Wind Dir Waves Ship Positions

Jomi

Last reported at 2017-Jun-16 07:33 UTC. Time now 2017-Jun-23 11:55 UTC.
Position N 58°49' E 004°40'.

Length 88 m; draft 5.7 m.

Type: Cargo ship. MMSI: 309701000.

Date/timePositionNaut miles runAvg speedWind from/ knotsBaromVisibWave heightAir tempDewpointWater temp
2017-Jun-16 07:33N 58°49' E 004°40'2 9.6
2017-Jun-16 07:20N 58°48' E 004°43'3 9.7
2017-Jun-16 06:59N 58°45' E 004°47'510.1
2017-Jun-16 06:30N 58°42' E 004°54'510.2
2017-Jun-16 06:00N 58°39' E 005°01'510.1
2017-Jun-16 05:30N 58°35' E 005°08'5 9.9
2017-Jun-16 05:00N 58°32' E 005°15'5 9.8
2017-Jun-16 04:30N 58°29' E 005°22'510.2
2017-Jun-16 04:00N 58°25' E 005°30'510.1
2017-Jun-16 03:30N 58°22' E 005°37'5 9.9
2017-Jun-16 03:00N 58°19' E 005°45'5 9.8
2017-Jun-16 02:30N 58°17' E 005°53'5 9.8
2017-Jun-16 02:00N 58°15' E 006°01'5 9.8
2017-Jun-16 01:30N 58°12' E 006°09'510.3
2017-Jun-16 01:00N 58°09' E 006°17'510.3
2017-Jun-16 00:30N 58°06' E 006°24'5 9.9
2017-Jun-16 00:00N 58°02' E 006°31'5 9.4
2017-Jun-15 23:30N 58°00' E 006°40'510.8
2017-Jun-15 23:00N 57°58' E 006°49'611.7
2017-Jun-15 22:30N 57°56' E 006°59'611.7
2017-Jun-15 22:00N 57°55' E 007°10'611.5
2017-Jun-15 21:30N 57°54' E 007°21'611.6
2017-Jun-15 21:00N 57°54' E 007°32'611.9
2017-Jun-15 20:30N 57°54' E 007°43'611.9
2017-Jun-15 20:00N 57°54' E 007°54'611.6
2017-Jun-15 19:30N 57°53' E 008°05'510.8
2017-Jun-15 19:00N 57°53' E 008°15'510.4
2017-Jun-15 18:30N 57°53' E 008°25'47 9.9
2017-Jun-15 13:44N 57°51' E 009°53'2 9.6
2017-Jun-15 13:29N 57°51' E 009°58'6 9.4
2017-Jun-15 12:52N 57°50' E 010°08'9 9.6
2017-Jun-15 11:59N 57°50' E 010°24'4 9.3
2017-Jun-15 11:31N 57°50' E 010°32'5 9.0
2017-Jun-15 11:00N 57°49' E 010°41'5 9.0
2017-Jun-15 10:30N 57°47' E 010°49'5 9.8
2017-Jun-15 09:59N 57°43' E 010°55'5 9.7
2017-Jun-15 09:28N 57°40' E 011°02'4 9.5
2017-Jun-15 09:00N 57°37' E 011°08'5 9.6
2017-Jun-15 08:31N 57°34' E 011°14'5 9.7
2017-Jun-15 08:00N 57°30' E 011°21'5 9.8
2017-Jun-15 07:31N 57°27' E 011°27'5 9.9
2017-Jun-15 06:59N 57°22' E 011°30'510.1
2017-Jun-15 06:29N 57°17' E 011°33'610.2
2017-Jun-15 05:56N 57°12' E 011°37'4 9.8
2017-Jun-15 05:29N 57°08' E 011°40'7 9.9
2017-Jun-15 04:49N 57°01' E 011°44'48 9.6
2017-Jun-14 23:49N 56°16' E 012°15'3 9.9
2017-Jun-14 23:30N 56°14' E 012°19'5 9.7
2017-Jun-14 23:01N 56°11' E 012°25'5 9.9
2017-Jun-14 22:31N 56°07' E 012°32'5 9.5
2017-Jun-14 22:01N 56°04' E 012°38'4 8.9
2017-Jun-14 21:31N 56°00' E 012°41'5 9.1
2017-Jun-14 21:01N 55°56' E 012°44'5 9.2
2017-Jun-14 20:30N 55°51' E 012°44'5 9.5
2017-Jun-14 20:01N 55°47' E 012°42'5 9.7
2017-Jun-14 19:31N 55°42' E 012°41'5 9.3
2017-Jun-14 19:01N 55°37' E 012°42'5 9.1
2017-Jun-14 18:31N 55°33' E 012°43'5 9.5
2017-Jun-14 18:00N 55°28' E 012°42'510.1
2017-Jun-14 17:31N 55°23' E 012°42'5 9.4
2017-Jun-14 17:00N 55°18' E 012°44'510.2
2017-Jun-14 16:30N 55°16' E 012°51'5 9.9
2017-Jun-14 16:00N 55°15' E 013°00'1210.0
2017-Jun-14 14:48N 55°15' E 013°21'8 9.9
2017-Jun-14 14:00N 55°15' E 013°35'5 9.8
2017-Jun-14 13:30N 55°15' E 013°44'5 9.8
2017-Jun-14 12:58N 55°14' E 013°53'4 9.7
2017-Jun-14 12:30N 55°14' E 014°01'5 9.6
2017-Jun-14 11:59N 55°14' E 014°09'4 9.4
2017-Jun-14 11:30N 55°15' E 014°17'510.1
2017-Jun-14 11:00N 55°18' E 014°23'510.2
2017-Jun-14 10:30N 55°22' E 014°29'510.4
2017-Jun-14 10:00N 55°26' E 014°35'510.0
2017-Jun-14 09:30N 55°29' E 014°42'510.0
2017-Jun-14 09:00N 55°32' E 014°50'510.0
2017-Jun-14 08:30N 55°34' E 014°58'510.1
2017-Jun-14 08:00N 55°37' E 015°05'510.0
2017-Jun-14 07:30N 55°39' E 015°13'510.0
2017-Jun-14 07:01N 55°41' E 015°21'5 9.9
2017-Jun-14 06:31N 55°44' E 015°28'5 9.9
2017-Jun-14 06:00N 55°47' E 015°36'510.1
2017-Jun-14 05:31N 55°49' E 015°44'510.1
2017-Jun-14 05:00N 55°52' E 015°51'510.2
2017-Jun-14 04:31N 55°54' E 015°59'510.1
2017-Jun-14 04:00N 55°57' E 016°07'510.2
2017-Jun-14 03:30N 55°59' E 016°15'510.3
2017-Jun-14 03:01N 56°02' E 016°23'510.4
2017-Jun-14 02:31N 56°05' E 016°31'510.4
2017-Jun-14 02:01N 56°07' E 016°39'510.4
2017-Jun-14 01:30N 56°11' E 016°46'510.3
2017-Jun-14 01:00N 56°14' E 016°53'510.2
2017-Jun-14 00:30N 56°17' E 017°01'510.1
2017-Jun-14 00:00N 56°20' E 017°08'510.0
2017-Jun-13 23:30N 56°23' E 017°15'  
2017-Jun-08 21:55N 56°05' E 016°48'4 9.2
2017-Jun-08 21:30N 56°03' E 016°42'5 9.3
2017-Jun-08 21:00N 56°00' E 016°35'5 9.4
2017-Jun-08 20:30N 55°58' E 016°28'5 9.5
2017-Jun-08 20:00N 55°56' E 016°20'5 9.3
2017-Jun-08 19:30N 55°53' E 016°13'5 9.2
2017-Jun-08 19:00N 55°51' E 016°06'5 9.2
2017-Jun-08 18:30N 55°49' E 015°59'5 9.2
2017-Jun-08 18:00N 55°47' E 015°52'5 9.3
2017-Jun-08 17:30N 55°44' E 015°45'5 9.4
2017-Jun-08 17:00N 55°42' E 015°38'5 9.3
2017-Jun-08 16:30N 55°39' E 015°31'5 9.4
2017-Jun-08 16:00N 55°37' E 015°23'5 9.5
2017-Jun-08 15:30N 55°35' E 015°16'5 9.5
2017-Jun-08 15:00N 55°32' E 015°09'5 9.4
2017-Jun-08 14:30N 55°30' E 015°01'9 9.5
2017-Jun-08 13:30N 55°25' E 014°47'5 9.2
2017-Jun-08 13:00N 55°23' E 014°40'4 9.0
2017-Jun-08 12:30N 55°20' E 014°34'5 9.0
2017-Jun-08 12:00N 55°16' E 014°29'5 9.0
2017-Jun-08 11:30N 55°13' E 014°23'4 8.9
2017-Jun-08 11:00N 55°11' E 014°16'5 9.2
2017-Jun-08 10:30N 55°11' E 014°08'4 8.9
2017-Jun-08 10:00N 55°10' E 014°00'5 9.0
2017-Jun-08 09:30N 55°11' E 013°52'4 8.9
2017-Jun-08 09:00N 55°11' E 013°45'4 8.9
2017-Jun-08 08:30N 55°12' E 013°37'5 9.0
2017-Jun-08 07:58N 55°13' E 013°29'15 9.2
2017-Jun-08 06:18N 55°14' E 013°02'3 9.3
2017-Jun-08 06:00N 55°15' E 012°57'6 9.3
2017-Jun-08 05:24N 55°16' E 012°48'4 9.2
2017-Jun-08 05:00N 55°17' E 012°42'3 7.0
2017-Jun-08 04:30N 55°20' E 012°38'4 8.6
2017-Jun-08 04:00N 55°24' E 012°39'4 8.7
2017-Jun-08 03:30N 55°28' E 012°41'4 8.4
2017-Jun-08 03:00N 55°32' E 012°42'4 7.9
2017-Jun-08 02:30N 55°36' E 012°42'4 7.8
2017-Jun-08 02:00N 55°40' E 012°41'4 7.7
2017-Jun-08 01:30N 55°44' E 012°41'4 8.0
2017-Jun-08 01:00N 55°48' E 012°41'4 8.3
2017-Jun-08 00:30N 55°52' E 012°40'4 7.9
2017-Jun-08 00:00N 55°56' E 012°39'4 8.6
2017-Jun-07 23:30N 56°00' E 012°40'4 7.2
2017-Jun-07 23:00N 56°04' E 012°38'3 6.3
2017-Jun-07 22:30N 56°06' E 012°34'3 6.4
2017-Jun-07 22:00N 56°08' E 012°29'5 8.0
2017-Jun-07 21:26N 56°10' E 012°23'  
Track history (hours):
 
Tides and Currents Weather Stations Pressure Air Temp Water Temp Dewpoint Dewpoint Depression Visibility Wind Speed Wind Dir Waves Ship Positions

Jomi

Last reported at 2017-Jun-16 07:33 UTC. Time now 2017-Jun-23 11:55 UTC.
Position N 58°49' E 004°40'.

Length 88 m; draft 5.7 m.

Type: Cargo ship. MMSI: 309701000.

Date/timePositionNaut miles runAvg speedWind from/ knotsBaromVisibWave heightAir tempDewpointWater temp
2017-Jun-16 07:33N 58°49' E 004°40'2 9.6
2017-Jun-16 07:20N 58°48' E 004°43'3 9.7
2017-Jun-16 06:59N 58°45' E 004°47'510.1
2017-Jun-16 06:30N 58°42' E 004°54'510.2
2017-Jun-16 06:00N 58°39' E 005°01'510.1
2017-Jun-16 05:30N 58°35' E 005°08'5 9.9
2017-Jun-16 05:00N 58°32' E 005°15'5 9.8
2017-Jun-16 04:30N 58°29' E 005°22'510.2
2017-Jun-16 04:00N 58°25' E 005°30'510.1
2017-Jun-16 03:30N 58°22' E 005°37'5 9.9
2017-Jun-16 03:00N 58°19' E 005°45'5 9.8
2017-Jun-16 02:30N 58°17' E 005°53'5 9.8
2017-Jun-16 02:00N 58°15' E 006°01'5 9.8
2017-Jun-16 01:30N 58°12' E 006°09'510.3
2017-Jun-16 01:00N 58°09' E 006°17'510.3
2017-Jun-16 00:30N 58°06' E 006°24'5 9.9
2017-Jun-16 00:00N 58°02' E 006°31'5 9.4
2017-Jun-15 23:30N 58°00' E 006°40'510.8
2017-Jun-15 23:00N 57°58' E 006°49'611.7
2017-Jun-15 22:30N 57°56' E 006°59'611.7
2017-Jun-15 22:00N 57°55' E 007°10'611.5
2017-Jun-15 21:30N 57°54' E 007°21'611.6
2017-Jun-15 21:00N 57°54' E 007°32'611.9
2017-Jun-15 20:30N 57°54' E 007°43'611.9
2017-Jun-15 20:00N 57°54' E 007°54'611.6
2017-Jun-15 19:30N 57°53' E 008°05'510.8
2017-Jun-15 19:00N 57°53' E 008°15'510.4
2017-Jun-15 18:30N 57°53' E 008°25'47 9.9
2017-Jun-15 13:44N 57°51' E 009°53'2 9.6
2017-Jun-15 13:29N 57°51' E 009°58'6 9.4
2017-Jun-15 12:52N 57°50' E 010°08'9 9.6
2017-Jun-15 11:59N 57°50' E 010°24'4 9.3
2017-Jun-15 11:31N 57°50' E 010°32'5 9.0
2017-Jun-15 11:00N 57°49' E 010°41'5 9.0
2017-Jun-15 10:30N 57°47' E 010°49'5 9.8
2017-Jun-15 09:59N 57°43' E 010°55'5 9.7
2017-Jun-15 09:28N 57°40' E 011°02'4 9.5
2017-Jun-15 09:00N 57°37' E 011°08'5 9.6
2017-Jun-15 08:31N 57°34' E 011°14'5 9.7
2017-Jun-15 08:00N 57°30' E 011°21'5 9.8
2017-Jun-15 07:31N 57°27' E 011°27'5 9.9
2017-Jun-15 06:59N 57°22' E 011°30'510.1
2017-Jun-15 06:29N 57°17' E 011°33'610.2
2017-Jun-15 05:56N 57°12' E 011°37'4 9.8
2017-Jun-15 05:29N 57°08' E 011°40'7 9.9
2017-Jun-15 04:49N 57°01' E 011°44'48 9.6
2017-Jun-14 23:49N 56°16' E 012°15'3 9.9
2017-Jun-14 23:30N 56°14' E 012°19'5 9.7
2017-Jun-14 23:01N 56°11' E 012°25'5 9.9
2017-Jun-14 22:31N 56°07' E 012°32'5 9.5
2017-Jun-14 22:01N 56°04' E 012°38'4 8.9
2017-Jun-14 21:31N 56°00' E 012°41'5 9.1
2017-Jun-14 21:01N 55°56' E 012°44'5 9.2
2017-Jun-14 20:30N 55°51' E 012°44'5 9.5
2017-Jun-14 20:01N 55°47' E 012°42'5 9.7
2017-Jun-14 19:31N 55°42' E 012°41'5 9.3
2017-Jun-14 19:01N 55°37' E 012°42'5 9.1
2017-Jun-14 18:31N 55°33' E 012°43'5 9.5
2017-Jun-14 18:00N 55°28' E 012°42'510.1
2017-Jun-14 17:31N 55°23' E 012°42'5 9.4
2017-Jun-14 17:00N 55°18' E 012°44'510.2
2017-Jun-14 16:30N 55°16' E 012°51'5 9.9
2017-Jun-14 16:00N 55°15' E 013°00'1210.0
2017-Jun-14 14:48N 55°15' E 013°21'8 9.9
2017-Jun-14 14:00N 55°15' E 013°35'5 9.8
2017-Jun-14 13:30N 55°15' E 013°44'5 9.8
2017-Jun-14 12:58N 55°14' E 013°53'4 9.7
2017-Jun-14 12:30N 55°14' E 014°01'5 9.6
2017-Jun-14 11:59N 55°14' E 014°09'4 9.4
2017-Jun-14 11:30N 55°15' E 014°17'510.1
2017-Jun-14 11:00N 55°18' E 014°23'510.2
2017-Jun-14 10:30N 55°22' E 014°29'510.4
2017-Jun-14 10:00N 55°26' E 014°35'510.0
2017-Jun-14 09:30N 55°29' E 014°42'510.0
2017-Jun-14 09:00N 55°32' E 014°50'510.0
2017-Jun-14 08:30N 55°34' E 014°58'510.1
2017-Jun-14 08:00N 55°37' E 015°05'510.0
2017-Jun-14 07:30N 55°39' E 015°13'510.0
2017-Jun-14 07:01N 55°41' E 015°21'5 9.9
2017-Jun-14 06:31N 55°44' E 015°28'5 9.9
2017-Jun-14 06:00N 55°47' E 015°36'510.1
2017-Jun-14 05:31N 55°49' E 015°44'510.1
2017-Jun-14 05:00N 55°52' E 015°51'510.2
2017-Jun-14 04:31N 55°54' E 015°59'510.1
2017-Jun-14 04:00N 55°57' E 016°07'510.2
2017-Jun-14 03:30N 55°59' E 016°15'510.3
2017-Jun-14 03:01N 56°02' E 016°23'510.4
2017-Jun-14 02:31N 56°05' E 016°31'510.4
2017-Jun-14 02:01N 56°07' E 016°39'510.4
2017-Jun-14 01:30N 56°11' E 016°46'510.3
2017-Jun-14 01:00N 56°14' E 016°53'510.2
2017-Jun-14 00:30N 56°17' E 017°01'510.1
2017-Jun-14 00:00N 56°20' E 017°08'510.0
2017-Jun-13 23:30N 56°23' E 017°15'  
2017-Jun-08 21:55N 56°05' E 016°48'4 9.2
2017-Jun-08 21:30N 56°03' E 016°42'5 9.3
2017-Jun-08 21:00N 56°00' E 016°35'5 9.4
2017-Jun-08 20:30N 55°58' E 016°28'5 9.5
2017-Jun-08 20:00N 55°56' E 016°20'5 9.3
2017-Jun-08 19:30N 55°53' E 016°13'5 9.2
2017-Jun-08 19:00N 55°51' E 016°06'5 9.2
2017-Jun-08 18:30N 55°49' E 015°59'5 9.2
2017-Jun-08 18:00N 55°47' E 015°52'5 9.3
2017-Jun-08 17:30N 55°44' E 015°45'5 9.4
2017-Jun-08 17:00N 55°42' E 015°38'5 9.3
2017-Jun-08 16:30N 55°39' E 015°31'5 9.4
2017-Jun-08 16:00N 55°37' E 015°23'5 9.5
2017-Jun-08 15:30N 55°35' E 015°16'5 9.5
2017-Jun-08 15:00N 55°32' E 015°09'5 9.4
2017-Jun-08 14:30N 55°30' E 015°01'9 9.5
2017-Jun-08 13:30N 55°25' E 014°47'5 9.2
2017-Jun-08 13:00N 55°23' E 014°40'4 9.0
2017-Jun-08 12:30N 55°20' E 014°34'5 9.0
2017-Jun-08 12:00N 55°16' E 014°29'5 9.0
2017-Jun-08 11:30N 55°13' E 014°23'4 8.9
2017-Jun-08 11:00N 55°11' E 014°16'5 9.2
2017-Jun-08 10:30N 55°11' E 014°08'4 8.9
2017-Jun-08 10:00N 55°10' E 014°00'5 9.0
2017-Jun-08 09:30N 55°11' E 013°52'4 8.9
2017-Jun-08 09:00N 55°11' E 013°45'4 8.9
2017-Jun-08 08:30N 55°12' E 013°37'5 9.0
2017-Jun-08 07:58N 55°13' E 013°29'15 9.2
2017-Jun-08 06:18N 55°14' E 013°02'3 9.3
2017-Jun-08 06:00N 55°15' E 012°57'6 9.3
2017-Jun-08 05:24N 55°16' E 012°48'4 9.2
2017-Jun-08 05:00N 55°17' E 012°42'3 7.0
2017-Jun-08 04:30N 55°20' E 012°38'4 8.6
2017-Jun-08 04:00N 55°24' E 012°39'4 8.7
2017-Jun-08 03:30N 55°28' E 012°41'4 8.4
2017-Jun-08 03:00N 55°32' E 012°42'4 7.9
2017-Jun-08 02:30N 55°36' E 012°42'4 7.8
2017-Jun-08 02:00N 55°40' E 012°41'4 7.7
2017-Jun-08 01:30N 55°44' E 012°41'4 8.0
2017-Jun-08 01:00N 55°48' E 012°41'4 8.3
2017-Jun-08 00:30N 55°52' E 012°40'4 7.9
2017-Jun-08 00:00N 55°56' E 012°39'4 8.6
2017-Jun-07 23:30N 56°00' E 012°40'4 7.2
2017-Jun-07 23:00N 56°04' E 012°38'3 6.3
2017-Jun-07 22:30N 56°06' E 012°34'3 6.4
2017-Jun-07 22:00N 56°08' E 012°29'5 8.0
2017-Jun-07 21:26N 56°10' E 012°23'  

Dump ship's entire track history